Impacts METAR Board
IDs:

KLAS - Las Vegas/McCarran I, NV, US

Updated at: 1200 UTC 17 Dec 2018
Potential Impact None Slight Moderate High
Time 17/00Z 17/01Z 17/02Z 17/03Z 17/04Z 17/05Z 17/06Z 17/07Z 17/08Z 17/09Z 17/10Z 17/11Z 17/12Z
Temp63 60 56 54 53 51 49 48 47 46 46 47 45
Dewpt20 22 24 25 25 25 26 26 26 26 26 26 26
Altim30.12 30.13 30.15 30.13 30.13 30.13 30.14 30.13 30.12 30.11 30.10 30.10 30.10
VIS10 10 10 10 10 10 10 10 10 10 10 10 10
CIG-- -- -- 250 250 250 250 250 220 220 220 200 210
CoverFEWFEWSCTBKNBKNBKNBKNBKNBKNBKNBKNBKNBKN
FltCatVFRVFRVFRVFRVFRVFRVFRVFRVFRVFRVFRVFRVFR
WX--------------------------
WDir00021025000020025000210
WSpd0 0 0 3 3 0 0 0 3 3 0 0 3
WGst-- -- -- -- -- -- -- -- -- -- -- -- --
Raw hourly METARs
KLAS 162356Z 00000KT 10SM FEW250 17/M07 A3012 RMK AO2 SLP197 T01721067 10178 20128 56003
KLAS 170056Z 00000KT 10SM FEW250 16/M06 A3013 RMK AO2 SLP199 T01561056
KLAS 170156Z 00000KT 10SM SCT250 13/M04 A3015 RMK AO2 SLP207 T01331044
KLAS 170256Z 21003KT 10SM FEW150 BKN250 12/M04 A3013 RMK AO2 SLP203 T01221039 50003
KLAS 170356Z 25003KT 10SM FEW150 BKN250 12/M04 A3013 RMK AO2 SLP203 T01171039
KLAS 170456Z 00000KT 10SM FEW150 BKN250 11/M04 A3013 RMK AO2 SLP203 T01061039
KLAS 170556Z 00000KT 10SM FEW150 BKN250 09/M03 A3014 RMK AO2 SLP202 T00941033 10172 20094 53002
KLAS 170656Z 00000KT 10SM FEW150 BKN250 09/M03 A3013 RMK AO2 SLP198 T00891033
KLAS 170756Z 20003KT 10SM FEW150 BKN220 08/M03 A3012 RMK AO2 SLP195 T00831033 401780050
KLAS 170856Z 25003KT 10SM FEW150 BKN220 08/M03 A3011 RMK AO2 SLP191 T00781033 58009
KLAS 170956Z 00000KT 10SM FEW150 BKN220 08/M03 A3010 RMK AO2 SLP189 T00781033
KLAS 171056Z 00000KT 10SM FEW150 BKN200 08/M03 A3010 RMK AO2 SLP185 T00831033
KLAS 171156Z 21003KT 10SM FEW150 BKN210 07/M03 A3010 RMK AO2 SLP186 T00721033 10100 20072 56005



Page loaded:  12:50 UTC  |   04:50 AM Pacific  |   05:50 AM Mountain  |   06:50 AM Central  |   07:50 AM Eastern

 

ADVISORIES

FORECASTS

FORECASTS

OBSERVATIONS

USER TOOLS

ABOUT US